Time;durP1;ratioP1;P1;durP2;ratioP2;P2;SDS_P1;SDS_P2;PMS_P1;PMS_P2;Temp;Humidity;BMP_temperature;BMP_pressure;BME280_temperature;BME280_humidity;BME280_pressure;Samples;Min_cycle;Max_cycle;Signal;HPM_P1;HPM_P2
2022/10/30 00:00:30;;;;;;;13.67;6.93;;;13.30;99.90;;;;;;4860428;29;20189;-87
2022/10/30 00:02:56;;;;;;;13.90;6.17;;;13.20;99.90;;;;;;4860262;29;20240;-86
2022/10/30 00:05:24;;;;;;;14.13;6.53;;;13.00;99.90;;;;;;4859963;29;20235;-87
2022/10/30 00:07:50;;;;;;;10.43;6.47;;;13.10;99.90;;;;;;4860256;29;20187;-87
2022/10/30 00:10:17;;;;;;;13.93;7.07;;;13.20;99.90;;;;;;4860587;29;20215;-87
2022/10/30 00:12:43;;;;;;;13.33;6.97;;;13.20;99.90;;;;;;4860347;29;20204;-87
2022/10/30 00:15:10;;;;;;;16.97;7.90;;;13.30;99.90;;;;;;4860293;29;20181;-87
2022/10/30 00:17:35;;;;;;;12.50;7.53;;;13.30;99.90;;;;;;4860064;29;20259;-87
2022/10/30 00:20:01;;;;;;;14.87;8.00;;;13.30;99.90;;;;;;4860255;29;20185;-87
2022/10/30 00:22:27;;;;;;;14.03;7.80;;;13.30;99.90;;;;;;4844770;29;20184;-87
2022/10/30 00:24:53;;;;;;;15.83;7.07;;;13.30;99.90;;;;;;4844712;29;20196;-87
2022/10/30 00:27:19;;;;;;;15.20;7.60;;;13.30;99.90;;;;;;4844579;29;20193;-87
2022/10/30 00:29:46;;;;;;;12.17;6.63;;;13.30;99.90;;;;;;4859878;29;20250;-87
2022/10/30 00:32:12;;;;;;;9.87;6.77;;;13.30;99.90;;;;;;4859901;29;20184;-87
2022/10/30 00:34:38;;;;;;;14.67;6.93;;;13.30;99.90;;;;;;4844391;29;20240;-87
2022/10/30 00:37:06;;;;;;;14.40;6.60;;;13.30;99.90;;;;;;4860198;29;20280;-87
2022/10/30 00:39:32;;;;;;;13.03;6.60;;;13.30;99.90;;;;;;4860129;29;20268;-87
2022/10/30 00:41:58;;;;;;;20.90;7.53;;;13.20;99.90;;;;;;4859870;29;20177;-87
2022/10/30 00:44:51;;;;;;;13.30;6.17;;;13.20;99.90;;;;;;4859430;29;20200;-87
2022/10/30 00:47:22;;;;;;;14.53;6.87;;;13.20;99.90;;;;;;4841730;29;20228;-86
2022/10/30 00:50:11;;;;;;;15.87;7.50;;;13.10;99.90;;;;;;4844267;29;20215;-87
2022/10/30 00:52:43;;;;;;;13.13;6.67;;;13.10;99.90;;;;;;4859869;29;20205;-87
2022/10/30 00:55:14;;;;;;;10.73;6.20;;;13.00;99.90;;;;;;4844250;29;20184;-87
2022/10/30 00:57:41;;;;;;;12.57;6.20;;;12.80;99.90;;;;;;4843802;29;20204;-86
2022/10/30 01:00:10;;;;;;;13.80;6.47;;;12.80;99.90;;;;;;4859634;29;20192;-87
2022/10/30 01:02:38;;;;;;;15.93;6.57;;;12.70;99.90;;;;;;4859348;29;20247;-86
2022/10/30 01:05:05;;;;;;;14.97;6.50;;;12.70;99.90;;;;;;4859478;29;20196;-86
2022/10/30 01:07:31;;;;;;;18.33;7.00;;;12.60;99.90;;;;;;4859409;29;20248;-87
2022/10/30 01:09:58;;;;;;;13.27;6.47;;;12.60;99.90;;;;;;4859427;29;20215;-87
2022/10/30 01:12:24;;;;;;;11.63;6.97;;;12.50;99.90;;;;;;4859309;29;20375;-86
2022/10/30 01:14:55;;;;;;;11.43;6.13;;;12.60;99.90;;;;;;4844208;29;20290;-86
2022/10/30 01:17:44;;;;;;;10.20;5.93;;;12.60;99.90;;;;;;4843201;29;20232;-86
2022/10/30 01:20:19;;;;;;;12.33;5.87;;;12.60;99.90;;;;;;4844243;29;20211;-87
2022/10/30 01:23:05;;;;;;;14.87;6.40;;;12.70;99.90;;;;;;4844390;29;20242;-87
2022/10/30 01:25:46;;;;;;;14.67;6.80;;;12.70;99.90;;;;;;4844059;29;20173;-87
2022/10/30 01:28:56;;;;;;;11.27;6.30;;;12.70;99.90;;;;;;4844056;29;20177;-87
2022/10/30 01:31:50;;;;;;;18.57;6.50;;;12.70;99.90;;;;;;4835963;29;20296;-87
2022/10/30 01:34:38;;;;;;;11.27;6.47;;;12.70;99.90;;;;;;4843125;29;20200;-87
2022/10/30 01:37:45;;;;;;;12.17;6.53;;;12.60;99.90;;;;;;4859329;29;20180;-87
2022/10/30 01:40:14;;;;;;;13.10;6.17;;;12.60;99.90;;;;;;4858808;29;20203;-87
2022/10/30 01:42:51;;;;;;;12.40;6.10;;;12.70;99.90;;;;;;4859067;29;20208;-87
2022/10/30 01:45:46;;;;;;;11.47;6.43;;;12.70;99.90;;;;;;4859684;29;20208;-87
2022/10/30 01:48:49;;;;;;;12.27;5.60;;;12.70;99.90;;;;;;4857914;29;20283;-87
2022/10/30 01:51:52;;;;;;;12.13;6.20;;;12.60;99.90;;;;;;4858764;29;20212;-87
2022/10/30 01:54:27;;;;;;;12.97;6.03;;;12.70;99.90;;;;;;4859091;29;20242;-86
2022/10/30 01:57:05;;;;;;;12.30;6.13;;;12.60;99.90;;;;;;4858963;29;20273;-87
2022/10/30 01:59:43;;;;;;;9.90;5.40;;;12.60;99.90;;;;;;4843826;29;20195;-87
2022/10/30 02:02:09;;;;;;;12.73;5.63;;;12.60;99.90;;;;;;4843542;29;20195;-86
2022/10/30 02:04:37;;;;;;;11.80;6.20;;;12.50;99.90;;;;;;4840427;29;20197;-87
2022/10/30 02:07:04;;;;;;;11.80;5.63;;;12.50;99.90;;;;;;4858083;29;20199;-86
2022/10/30 02:09:36;;;;;;;10.93;5.83;;;12.50;99.90;;;;;;4844258;29;20200;-86
2022/10/30 02:12:03;;;;;;;10.90;5.53;;;12.50;99.90;;;;;;4843511;29;20778;-87
2022/10/30 02:14:36;;;;;;;9.63;5.70;;;12.50;99.90;;;;;;4858815;29;20240;-87
2022/10/30 02:17:06;;;;;;;13.33;5.77;;;12.50;99.90;;;;;;4858598;29;20177;-86
2022/10/30 02:19:33;;;;;;;8.37;5.50;;;12.50;99.90;;;;;;4843658;29;20191;-87
2022/10/30 02:22:04;;;;;;;11.97;6.23;;;12.50;99.90;;;;;;4858447;29;20248;-87
2022/10/30 02:24:30;;;;;;;9.67;5.30;;;12.40;99.90;;;;;;4858576;29;20205;-86
2022/10/30 02:26:56;;;;;;;9.10;5.73;;;12.50;99.90;;;;;;4843524;29;20192;-86
2022/10/30 02:29:22;;;;;;;14.17;5.40;;;12.50;99.90;;;;;;4858466;29;20215;-86
2022/10/30 02:31:48;;;;;;;10.83;5.47;;;12.40;99.90;;;;;;4880644;29;20222;-86
2022/10/30 02:34:15;;;;;;;13.07;5.33;;;12.40;99.90;;;;;;4880528;29;20235;-87
2022/10/30 02:36:42;;;;;;;9.83;5.00;;;12.30;99.90;;;;;;4881648;29;20191;-86
2022/10/30 02:39:10;;;;;;;8.30;5.20;;;12.30;99.90;;;;;;4880457;29;20199;-86
2022/10/30 02:41:36;;;;;;;16.03;6.30;;;12.30;99.90;;;;;;4880594;29;20224;-87
2022/10/30 02:44:03;;;;;;;10.63;5.40;;;12.30;99.90;;;;;;4870503;29;20251;-87
2022/10/30 02:46:32;;;;;;;9.47;5.40;;;12.30;99.90;;;;;;4861896;29;20181;-87
2022/10/30 02:48:58;;;;;;;11.03;5.40;;;12.20;99.90;;;;;;4861659;29;20188;-86
2022/10/30 02:51:25;;;;;;;10.07;5.47;;;12.20;99.90;;;;;;4861616;29;20219;-87
2022/10/30 02:53:51;;;;;;;9.17;4.97;;;12.20;99.90;;;;;;4861944;29;20204;-86
2022/10/30 02:56:17;;;;;;;11.07;5.37;;;12.30;99.90;;;;;;4861858;29;20290;-87
2022/10/30 02:58:43;;;;;;;11.73;5.10;;;12.20;99.90;;;;;;4861543;29;20191;-87
2022/10/30 03:01:18;;;;;;;14.10;4.93;;;12.20;99.90;;;;;;4846446;29;20294;-87
2022/10/30 03:03:45;;;;;;;10.70;4.93;;;12.10;99.90;;;;;;4858282;29;20217;-87
2022/10/30 03:06:14;;;;;;;11.40;5.40;;;12.20;99.90;;;;;;4847274;29;20246;-87
2022/10/30 03:08:41;;;;;;;10.60;5.57;;;12.20;99.90;;;;;;4827293;29;20670;-87
2022/10/30 03:11:12;;;;;;;12.40;4.83;;;12.20;99.90;;;;;;4827531;29;20213;-87
2022/10/30 03:13:39;;;;;;;9.20;5.10;;;12.20;99.90;;;;;;4845667;29;20337;-86
2022/10/30 03:16:08;;;;;;;11.63;5.10;;;12.20;99.90;;;;;;4846049;29;20184;-87
2022/10/30 03:18:35;;;;;;;15.37;5.77;;;12.10;99.90;;;;;;4860533;29;20184;-87
2022/10/30 03:21:10;;;;;;;10.90;5.47;;;12.10;99.90;;;;;;4845715;29;20187;-87
2022/10/30 03:23:36;;;;;;;12.73;5.57;;;12.00;99.90;;;;;;4843676;29;20227;-87
2022/10/30 03:26:03;;;;;;;11.03;5.50;;;12.00;99.90;;;;;;4858505;29;20196;-86
2022/10/30 03:28:34;;;;;;;10.90;5.13;;;11.90;99.90;;;;;;4862135;29;20192;-87
2022/10/30 03:31:06;;;;;;;12.00;5.60;;;11.90;99.90;;;;;;4846385;29;20232;-87
2022/10/30 03:33:35;;;;;;;10.27;5.30;;;11.90;99.90;;;;;;4860564;29;20286;-87
2022/10/30 03:36:02;;;;;;;11.67;5.77;;;11.90;99.90;;;;;;4860916;29;20192;-87
2022/10/30 03:38:28;;;;;;;9.40;5.07;;;11.90;99.90;;;;;;4845224;29;20201;-87
2022/10/30 03:40:55;;;;;;;13.33;5.30;;;12.00;99.90;;;;;;4845101;29;20278;-86
2022/10/30 03:43:21;;;;;;;12.63;5.50;;;12.00;99.90;;;;;;4860906;29;20257;-87
2022/10/30 03:45:49;;;;;;;11.73;4.93;;;12.00;99.90;;;;;;4845699;29;20192;-87
2022/10/30 03:48:17;;;;;;;12.00;5.10;;;12.00;99.90;;;;;;4845550;29;20665;-87
2022/10/30 03:50:44;;;;;;;8.47;5.10;;;12.10;99.90;;;;;;4845740;29;20214;-87
2022/10/30 03:53:11;;;;;;;13.30;4.97;;;12.10;99.90;;;;;;4860789;29;20239;-87
2022/10/30 03:55:37;;;;;;;9.60;5.07;;;12.00;99.90;;;;;;4860669;29;20195;-86
2022/10/30 03:58:04;;;;;;;7.70;4.60;;;12.00;99.90;;;;;;4860226;29;20192;-87
2022/10/30 04:00:31;;;;;;;8.70;4.80;;;12.00;99.90;;;;;;4845111;29;20191;-86
2022/10/30 04:02:58;;;;;;;9.30;4.40;;;12.00;99.90;;;;;;4845383;29;20207;-87
2022/10/30 04:05:27;;;;;;;9.03;4.77;;;11.90;99.90;;;;;;4845390;29;20195;-86
2022/10/30 04:08:00;;;;;;;11.30;5.17;;;11.90;99.90;;;;;;4860099;29;20189;-86
2022/10/30 04:10:52;;;;;;;9.63;4.83;;;11.90;99.90;;;;;;4860501;29;20203;-87
2022/10/30 04:13:19;;;;;;;11.67;5.17;;;11.90;99.90;;;;;;4860365;29;20211;-87
2022/10/30 04:15:49;;;;;;;9.10;4.47;;;11.90;99.90;;;;;;4860358;29;20179;-87
2022/10/30 04:18:16;;;;;;;11.50;4.63;;;11.80;99.90;;;;;;4860192;29;20188;-86
2022/10/30 04:20:43;;;;;;;12.60;4.83;;;11.80;99.90;;;;;;4860279;29;20197;-86
2022/10/30 04:23:16;;;;;;;10.53;5.27;;;11.70;99.90;;;;;;4859966;29;20210;-87
2022/10/30 04:25:42;;;;;;;11.73;4.93;;;11.70;99.90;;;;;;4860235;29;20180;-86
2022/10/30 04:28:08;;;;;;;10.80;5.00;;;11.60;99.90;;;;;;4859809;29;20188;-86
2022/10/30 04:30:35;;;;;;;9.57;5.23;;;11.60;99.90;;;;;;4859943;29;20210;-87
2022/10/30 04:33:05;;;;;;;12.87;5.13;;;11.60;99.90;;;;;;4859833;29;20260;-87
2022/10/30 04:35:35;;;;;;;14.03;5.37;;;11.60;99.90;;;;;;4859940;29;20190;-86
2022/10/30 04:38:11;;;;;;;9.97;5.10;;;11.60;99.90;;;;;;4860045;29;20200;-86
2022/10/30 04:40:42;;;;;;;10.50;5.17;;;11.50;99.90;;;;;;4860005;29;20183;-86
2022/10/30 04:43:09;;;;;;;8.20;4.70;;;11.50;99.90;;;;;;4859873;29;20237;-87
2022/10/30 04:45:36;;;;;;;14.20;5.00;;;11.40;99.90;;;;;;4859752;29;20187;-86
2022/10/30 04:48:06;;;;;;;10.13;4.70;;;11.40;99.90;;;;;;4859533;29;20187;-86
2022/10/30 04:50:33;;;;;;;9.83;4.50;;;11.40;99.90;;;;;;4859684;29;20221;-86
2022/10/30 04:53:17;;;;;;;11.67;4.80;;;11.30;99.90;;;;;;4858763;29;20213;-86
2022/10/30 04:55:46;;;;;;;10.97;4.83;;;11.20;99.90;;;;;;4859967;29;20181;-86
2022/10/30 04:58:13;;;;;;;11.37;4.70;;;11.10;99.90;;;;;;4859498;29;20277;-86
2022/10/30 05:00:42;;;;;;;11.33;4.90;;;11.20;99.90;;;;;;4858953;29;20222;-87
2022/10/30 05:03:23;;;;;;;11.23;5.13;;;11.20;99.90;;;;;;4859825;29;20210;-87
2022/10/30 05:06:23;;;;;;;11.17;5.13;;;11.20;99.90;;;;;;4859430;29;20193;-87
2022/10/30 05:08:50;;;;;;;11.97;5.00;;;11.30;99.90;;;;;;4844011;29;20184;-87
2022/10/30 05:11:28;;;;;;;10.50;5.00;;;11.30;99.90;;;;;;4845864;29;20228;-87
2022/10/30 05:13:55;;;;;;;11.47;4.87;;;11.30;99.90;;;;;;4843883;29;20207;-86
2022/10/30 05:16:23;;;;;;;7.17;4.37;;;11.30;99.90;;;;;;4843743;29;20182;-86
2022/10/30 05:18:50;;;;;;;12.43;5.57;;;11.30;99.90;;;;;;4844119;29;20181;-86
2022/10/30 05:21:16;;;;;;;8.30;4.90;;;11.30;99.90;;;;;;4844242;29;20191;-87
2022/10/30 05:23:42;;;;;;;10.67;4.83;;;11.20;99.90;;;;;;4843962;29;20214;-87
2022/10/30 05:26:09;;;;;;;11.53;5.23;;;11.20;99.90;;;;;;4844435;29;20337;-86
2022/10/30 05:28:35;;;;;;;12.77;5.03;;;11.20;99.90;;;;;;4847300;29;20236;-87
2022/10/30 05:31:01;;;;;;;10.13;5.00;;;11.20;99.90;;;;;;4882194;29;20215;-86
2022/10/30 05:33:47;;;;;;;10.77;4.50;;;11.20;99.90;;;;;;4860822;29;20297;-87
2022/10/30 05:36:13;;;;;;;11.47;5.50;;;11.20;99.90;;;;;;4843716;29;20292;-86
2022/10/30 05:38:40;;;;;;;8.80;5.30;;;11.20;99.90;;;;;;4843874;29;20236;-87
2022/10/30 05:41:10;;;;;;;8.07;4.80;;;11.20;99.90;;;;;;4844572;29;20239;-86
2022/10/30 05:43:36;;;;;;;10.57;4.77;;;11.20;99.90;;;;;;4843728;29;20205;-87
2022/10/30 05:46:02;;;;;;;9.17;5.00;;;11.20;99.90;;;;;;4843546;29;20183;-87
2022/10/30 05:48:28;;;;;;;11.27;4.87;;;11.20;99.90;;;;;;4858852;29;20193;-86
2022/10/30 05:50:55;;;;;;;9.63;5.20;;;11.30;99.90;;;;;;4843363;29;20219;-87
2022/10/30 05:53:27;;;;;;;8.50;4.87;;;11.30;99.90;;;;;;4859210;29;20207;-87
2022/10/30 05:55:58;;;;;;;11.10;4.93;;;11.30;99.90;;;;;;4859113;29;20265;-87
2022/10/30 05:58:29;;;;;;;12.03;5.10;;;11.40;99.90;;;;;;4858791;29;20180;-86
2022/10/30 06:01:36;;;;;;;13.93;4.90;;;11.30;99.90;;;;;;4843458;29;20195;-87
2022/10/30 06:04:09;;;;;;;10.67;5.10;;;11.30;99.90;;;;;;4845501;29;20210;-86
2022/10/30 06:06:35;;;;;;;8.57;4.73;;;11.30;99.90;;;;;;4862582;29;20191;-86
2022/10/30 06:09:01;;;;;;;10.93;4.90;;;11.20;99.90;;;;;;4862546;29;20199;-86
2022/10/30 06:11:55;;;;;;;11.30;4.50;;;11.10;99.90;;;;;;4847607;29;20215;-86
2022/10/30 06:14:31;;;;;;;13.93;5.40;;;11.10;99.90;;;;;;4850695;29;20196;-86
2022/10/30 06:16:57;;;;;;;12.93;5.20;;;11.10;99.90;;;;;;4863311;29;20189;-86
2022/10/30 06:19:39;;;;;;;13.07;5.33;;;11.10;99.90;;;;;;4877058;29;20196;-86
2022/10/30 06:22:27;;;;;;;14.80;5.37;;;11.10;99.90;;;;;;4877051;29;20254;-86
2022/10/30 06:25:01;;;;;;;14.23;5.20;;;11.10;99.90;;;;;;4882681;29;20182;-87
2022/10/30 06:27:46;;;;;;;10.77;4.73;;;11.10;99.90;;;;;;4862934;29;20252;-86
2022/10/30 06:30:14;;;;;;;10.23;5.27;;;11.20;99.90;;;;;;4862373;29;20214;-86
2022/10/30 06:32:41;;;;;;;16.00;5.10;;;11.20;99.90;;;;;;4862649;29;20213;-86
2022/10/30 06:35:07;;;;;;;12.60;5.10;;;11.30;99.90;;;;;;4862477;29;20200;-86
2022/10/30 06:37:33;;;;;;;14.20;4.80;;;11.40;99.90;;;;;;4847131;29;20192;-87
2022/10/30 06:40:08;;;;;;;9.17;4.97;;;11.40;99.90;;;;;;4848251;29;20661;-87
2022/10/30 06:43:30;;;;;;;9.43;4.30;;;11.40;99.90;;;;;;4850061;29;20267;-86
2022/10/30 06:46:13;;;;;;;9.57;4.90;;;11.40;99.90;;;;;;4862217;29;20190;-86
2022/10/30 06:48:42;;;;;;;10.00;4.80;;;11.50;99.90;;;;;;4847255;29;20186;-87
2022/10/30 06:51:13;;;;;;;11.80;5.17;;;11.60;99.90;;;;;;4862034;29;20240;-86
2022/10/30 06:53:39;;;;;;;8.23;4.70;;;11.70;99.90;;;;;;4862229;29;20294;-87
2022/10/30 06:56:24;;;;;;;10.37;5.33;;;11.70;99.90;;;;;;4862761;29;20256;-86
2022/10/30 06:59:09;;;;;;;9.17;4.83;;;11.70;99.90;;;;;;4862647;29;20191;-86
2022/10/30 07:01:51;;;;;;;9.20;4.80;;;11.70;99.90;;;;;;4893070;29;20644;-86
2022/10/30 07:04:34;;;;;;;8.67;4.47;;;11.80;99.90;;;;;;4861820;29;20204;-87
2022/10/30 07:07:18;;;;;;;11.40;5.70;;;11.80;99.90;;;;;;4875012;29;20206;-86
2022/10/30 07:10:14;;;;;;;12.77;5.50;;;11.90;99.90;;;;;;4861310;29;20214;-87
2022/10/30 07:12:59;;;;;;;16.60;6.37;;;12.00;99.90;;;;;;4862348;29;20220;-80
2022/10/30 07:15:45;;;;;;;9.07;5.83;;;12.00;99.90;;;;;;4861811;29;20192;-87
2022/10/30 07:18:33;;;;;;;9.70;6.00;;;12.00;99.90;;;;;;4861916;29;20227;-87
2022/10/30 07:21:00;;;;;;;12.47;6.20;;;12.10;99.90;;;;;;4861866;29;20191;-87
2022/10/30 07:23:29;;;;;;;9.03;5.20;;;12.20;99.90;;;;;;4861043;29;20226;-87
2022/10/30 07:26:18;;;;;;;11.27;4.90;;;12.20;99.90;;;;;;4861169;29;20182;-87
2022/10/30 07:28:46;;;;;;;11.97;4.70;;;12.30;99.90;;;;;;4860913;29;20207;-87
2022/10/30 07:31:48;;;;;;;9.43;4.57;;;12.30;99.90;;;;;;4861133;29;20214;-87
2022/10/30 07:34:29;;;;;;;13.50;4.40;;;12.40;99.90;;;;;;4861274;29;20203;-87
2022/10/30 07:37:04;;;;;;;8.50;4.07;;;12.40;99.90;;;;;;4860586;29;20239;-87
2022/10/30 07:39:48;;;;;;;5.60;3.97;;;12.40;99.90;;;;;;4862671;29;20191;-87
2022/10/30 07:42:24;;;;;;;9.90;4.23;;;12.40;99.90;;;;;;4860671;29;20208;-87
2022/10/30 07:45:02;;;;;;;11.60;4.47;;;12.40;99.90;;;;;;4875168;29;20233;-86
2022/10/30 07:47:40;;;;;;;6.27;4.80;;;12.40;99.90;;;;;;4861024;29;20262;-87
2022/10/30 07:50:17;;;;;;;7.70;4.27;;;12.40;99.90;;;;;;4861212;29;20212;-87
2022/10/30 07:52:43;;;;;;;8.97;4.47;;;12.40;99.90;;;;;;4860856;29;20196;-86
2022/10/30 07:55:17;;;;;;;10.30;4.90;;;12.40;99.90;;;;;;4860530;29;20261;-87
2022/10/30 07:57:55;;;;;;;9.90;4.23;;;12.40;99.90;;;;;;4860704;29;20262;-87
2022/10/30 08:00:57;;;;;;;12.10;5.60;;;12.40;99.90;;;;;;4860313;29;20195;-86
2022/10/30 08:03:30;;;;;;;12.07;6.73;;;12.40;99.90;;;;;;4846320;29;20215;-87
2022/10/30 08:06:06;;;;;;;10.53;5.90;;;12.50;99.90;;;;;;4846018;29;20184;-87
2022/10/30 08:08:36;;;;;;;11.70;5.97;;;12.50;99.90;;;;;;4860560;29;20188;-87
2022/10/30 08:11:22;;;;;;;11.37;5.33;;;12.60;99.90;;;;;;4858017;29;20255;-87
2022/10/30 08:13:51;;;;;;;10.50;5.40;;;12.70;99.90;;;;;;4859458;29;20204;-87
2022/10/30 08:16:19;;;;;;;8.23;4.77;;;12.70;99.90;;;;;;4845398;29;20223;-87
2022/10/30 08:18:45;;;;;;;11.50;5.50;;;12.80;99.90;;;;;;4865369;29;20176;-87
2022/10/30 08:21:13;;;;;;;13.07;4.80;;;12.90;99.90;;;;;;4860867;29;20223;-87
2022/10/30 08:23:53;;;;;;;9.93;5.60;;;12.90;99.90;;;;;;4860269;29;20231;-87
2022/10/30 08:26:20;;;;;;;12.13;5.13;;;13.00;99.90;;;;;;4875649;29;20185;-87
2022/10/30 08:28:46;;;;;;;11.63;5.40;;;13.10;99.90;;;;;;4860155;29;20188;-87
2022/10/30 08:31:12;;;;;;;12.17;4.90;;;13.20;99.90;;;;;;4860187;29;20287;-87
2022/10/30 08:34:08;;;;;;;9.93;5.37;;;13.30;99.90;;;;;;4847411;29;20292;-86
2022/10/30 08:36:50;;;;;;;10.73;6.07;;;13.50;99.90;;;;;;4875648;29;20183;-86
2022/10/30 08:39:17;;;;;;;11.07;5.90;;;13.60;99.90;;;;;;4863767;29;20232;-86
2022/10/30 08:42:09;;;;;;;11.63;5.17;;;13.70;99.90;;;;;;4841856;29;20271;-86
2022/10/30 08:44:40;;;;;;;9.23;4.83;;;13.90;99.90;;;;;;4860220;29;20750;-86
2022/10/30 08:47:22;;;;;;;11.53;5.63;;;14.10;99.90;;;;;;4861176;29;20288;-86
2022/10/30 08:49:47;;;;;;;10.10;5.60;;;14.20;99.90;;;;;;4859996;29;20661;-86
2022/10/30 08:52:17;;;;;;;10.93;5.17;;;14.30;99.90;;;;;;4860363;29;20189;-86
2022/10/30 08:54:47;;;;;;;10.03;4.60;;;14.50;99.90;;;;;;4860106;29;20271;-86
2022/10/30 08:57:13;;;;;;;9.07;4.50;;;14.70;99.90;;;;;;4860470;29;20212;-86
2022/10/30 08:59:39;;;;;;;12.27;5.33;;;14.80;99.90;;;;;;4870989;29;20226;-86
2022/10/30 09:02:11;;;;;;;6.70;4.37;;;15.00;99.90;;;;;;4870183;29;20233;-86
2022/10/30 09:04:56;;;;;;;10.50;4.40;;;15.20;99.90;;;;;;4861868;29;20208;-86
2022/10/30 09:07:59;;;;;;;10.73;4.27;;;15.40;99.90;;;;;;4872004;29;20221;-86
2022/10/30 09:10:55;;;;;;;12.63;4.23;;;15.50;99.90;;;;;;4844926;29;20259;-86
2022/10/30 09:13:21;;;;;;;11.97;4.47;;;15.70;99.90;;;;;;4834846;29;20208;-86
2022/10/30 09:15:47;;;;;;;10.10;4.13;;;15.80;99.90;;;;;;4860080;29;20192;-86
2022/10/30 09:18:13;;;;;;;10.23;4.70;;;15.90;99.90;;;;;;4860001;29;20184;-86
2022/10/30 09:20:39;;;;;;;9.40;4.27;;;16.00;99.90;;;;;;4860238;29;20208;-86
2022/10/30 09:23:05;;;;;;;8.67;4.40;;;16.10;99.90;;;;;;4859951;29;20201;-86
2022/10/30 09:25:31;;;;;;;10.23;4.50;;;16.20;99.90;;;;;;4860278;29;20180;-86
2022/10/30 09:28:08;;;;;;;9.70;4.63;;;16.30;99.90;;;;;;4859490;29;20173;-86
2022/10/30 09:30:55;;;;;;;10.75;4.70;;;16.50;99.90;;;;;;4859669;29;20216;-86
2022/10/30 09:33:22;;;;;;;11.93;4.43;;;16.50;99.90;;;;;;4859790;29;20291;-86
2022/10/30 09:36:15;;;;;;;9.25;4.38;;;16.60;99.90;;;;;;4859689;29;20194;-86
2022/10/30 09:38:42;;;;;;;10.88;4.32;;;16.70;99.90;;;;;;4863096;29;20244;-86
2022/10/30 09:41:10;;;;;;;9.07;4.55;;;16.80;99.90;;;;;;4850268;29;20184;-87
2022/10/30 09:43:54;;;;;;;7.72;4.80;;;16.90;99.90;;;;;;4850273;29;20249;-86
2022/10/30 09:46:48;;;;;;;10.30;4.75;;;17.00;99.90;;;;;;4862481;29;20264;-87
2022/10/30 09:49:20;;;;;;;9.43;4.68;;;17.10;99.90;;;;;;4850240;29;20228;-87
2022/10/30 09:52:01;;;;;;;12.52;4.40;;;17.30;99.90;;;;;;4865311;29;20314;-87
2022/10/30 09:55:01;;;;;;;6.78;4.30;;;17.40;99.90;;;;;;4849958;29;20197;-88
2022/10/30 09:57:35;;;;;;;8.70;4.38;;;17.50;99.90;;;;;;4850015;29;20184;-87
2022/10/30 10:00:13;;;;;;;9.45;4.75;;;17.60;99.90;;;;;;4850141;29;20168;-87
2022/10/30 10:02:56;;;;;;;13.00;4.75;;;17.70;99.90;;;;;;4865618;29;20204;-87
2022/10/30 10:05:31;;;;;;;8.10;4.28;;;17.80;99.90;;;;;;4850059;29;20229;-87
2022/10/30 10:08:29;;;;;;;7.90;4.57;;;18.00;99.90;;;;;;4865369;29;20211;-88
2022/10/30 10:11:36;;;;;;;8.30;4.90;;;18.10;99.90;;;;;;4839420;29;20218;-87
2022/10/30 10:14:17;;;;;;;8.50;4.47;;;18.30;99.90;;;;;;4846867;29;20208;-87
2022/10/30 10:16:50;;;;;;;11.30;4.45;;;18.40;99.90;;;;;;4866984;29;20271;-87
2022/10/30 10:19:20;;;;;;;11.20;4.20;;;18.50;99.90;;;;;;4864849;29;20196;-84
2022/10/30 10:21:58;;;;;;;10.55;4.07;;;18.60;99.90;;;;;;4863102;29;20176;-83
2022/10/30 10:24:34;;;;;;;8.20;3.85;;;18.70;99.90;;;;;;4865501;29;20200;-83
2022/10/30 10:27:06;;;;;;;8.57;4.25;;;18.80;99.90;;;;;;4865111;29;20177;-83
2022/10/30 10:29:39;;;;;;;13.27;4.43;;;18.90;99.90;;;;;;4864995;29;20185;-83
2022/10/30 10:32:21;;;;;;;7.45;3.83;;;19.00;99.90;;;;;;4863298;29;20207;-83
2022/10/30 10:35:12;;;;;;;9.63;4.57;;;19.00;99.90;;;;;;4849614;29;20384;-83
2022/10/30 10:37:48;;;;;;;10.02;4.65;;;19.20;99.90;;;;;;4873523;29;20204;-86
2022/10/30 10:40:47;;;;;;;9.30;4.65;;;19.30;99.90;;;;;;4865271;29;20271;-87
2022/10/30 10:43:22;;;;;;;10.38;4.10;;;19.40;99.90;;;;;;4862220;29;20256;-85
2022/10/30 10:46:13;;;;;;;8.48;4.18;;;19.50;99.90;;;;;;4865681;29;20188;-88
2022/10/30 10:48:54;;;;;;;7.45;4.00;;;19.60;99.90;;;;;;4865278;29;20185;-88
2022/10/30 10:51:52;;;;;;;10.38;4.20;;;19.70;99.90;;;;;;4846912;29;20285;-88
2022/10/30 10:54:26;;;;;;;7.10;3.78;;;19.80;99.90;;;;;;4844683;29;20704;-88
2022/10/30 10:56:53;;;;;;;7.90;4.13;;;19.90;99.90;;;;;;4861781;29;20180;-88
2022/10/30 10:59:24;;;;;;;9.88;4.38;;;20.00;99.90;;;;;;4862050;29;20181;-88
2022/10/30 11:02:16;;;;;;;10.02;4.30;;;20.10;99.90;;;;;;4861957;29;20252;-88
2022/10/30 11:04:49;;;;;;;6.57;3.80;;;20.20;99.90;;;;;;4861834;29;20209;-88
2022/10/30 11:07:19;;;;;;;12.10;4.00;;;20.30;99.90;;;;;;4873890;29;20184;-88
2022/10/30 11:09:50;;;;;;;11.32;4.38;;;20.40;99.90;;;;;;4880102;29;20229;-88
2022/10/30 11:12:19;;;;;;;7.80;4.05;;;20.40;99.90;;;;;;4867869;29;20196;-88
2022/10/30 11:14:45;;;;;;;8.38;3.85;;;20.40;99.90;;;;;;4861585;29;20196;-88
2022/10/30 11:17:33;;;;;;;8.77;3.90;;;20.50;99.90;;;;;;4846120;29;20184;-87
2022/10/30 11:20:10;;;;;;;7.88;4.07;;;20.40;99.90;;;;;;4846235;29;20747;-88
2022/10/30 11:22:39;;;;;;;8.90;3.63;;;20.40;99.90;;;;;;4845987;29;20215;-88
2022/10/30 11:25:21;;;;;;;8.05;3.67;;;20.50;99.90;;;;;;4846051;29;20188;-88
2022/10/30 11:27:52;;;;;;;8.38;3.50;;;20.50;99.90;;;;;;4842913;29;20276;-88
2022/10/30 11:30:21;;;;;;;10.10;3.90;;;20.60;99.90;;;;;;4845645;29;20205;-88
2022/10/30 11:32:47;;;;;;;8.50;3.97;;;20.70;99.90;;;;;;4860618;29;20196;-88
2022/10/30 11:35:17;;;;;;;9.55;3.92;;;20.80;99.90;;;;;;4861773;29;20181;-88
2022/10/30 11:37:44;;;;;;;9.73;3.65;;;20.90;99.90;;;;;;4861080;29;20224;-88
2022/10/30 11:40:10;;;;;;;7.50;3.72;;;21.00;99.90;;;;;;4861097;29;20276;-88
2022/10/30 11:42:47;;;;;;;9.77;4.13;;;21.20;99.90;;;;;;4861087;29;20308;-88
2022/10/30 11:45:37;;;;;;;7.35;3.90;;;21.30;99.90;;;;;;4860906;29;20182;-88
2022/10/30 11:51:46;;;;;;;6.22;3.92;;;21.50;99.90;;;;;;4860472;29;20216;-88
2022/10/30 11:54:19;;;;;;;7.35;4.30;;;21.60;99.90;;;;;;4845407;29;20209;-88
2022/10/30 11:57:20;;;;;;;11.40;3.97;;;21.70;99.90;;;;;;4863287;29;20181;-89
2022/10/30 11:59:47;;;;;;;9.38;4.78;;;21.80;99.90;;;;;;4861026;29;20638;-88
2022/10/30 12:02:25;;;;;;;8.43;4.13;;;21.80;99.90;;;;;;4859968;29;20185;-89
2022/10/30 12:04:52;;;;;;;11.70;3.80;;;21.90;99.90;;;;;;4860644;29;20200;-88
2022/10/30 12:07:26;;;;;;;8.80;4.03;;;21.90;99.90;;;;;;4860574;29;20189;-88
2022/10/30 12:09:53;;;;;;;9.82;4.20;;;22.00;99.90;;;;;;4860102;29;20185;-88
2022/10/30 12:12:26;;;;;;;9.00;4.43;;;22.10;99.90;;;;;;4860250;29;20200;-88
2022/10/30 12:14:54;;;;;;;6.90;3.63;;;22.20;99.90;;;;;;4860757;29;20196;-88
2022/10/30 12:17:21;;;;;;;7.80;3.90;;;22.30;99.90;;;;;;4845149;29;20181;-88
2022/10/30 12:19:51;;;;;;;10.20;4.18;;;22.30;99.90;;;;;;4860447;29;20196;-88
2022/10/30 12:22:45;;;;;;;10.52;4.50;;;22.30;99.90;;;;;;4860308;29;20189;-88
2022/10/30 12:25:25;;;;;;;9.32;3.83;;;22.30;99.90;;;;;;4860209;29;20197;-88
2022/10/30 12:28:15;;;;;;;9.10;3.60;;;22.40;99.90;;;;;;4859902;29;20169;-88
2022/10/30 12:31:16;;;;;;;8.68;3.95;;;22.40;99.90;;;;;;4859704;29;20220;-88
2022/10/30 12:34:10;;;;;;;8.25;3.88;;;22.50;99.90;;;;;;4848003;29;20215;-87
2022/10/30 12:36:48;;;;;;;6.85;3.60;;;22.60;99.90;;;;;;4859872;29;20192;-87
2022/10/30 12:39:44;;;;;;;9.95;3.47;;;22.70;99.90;;;;;;4852883;29;20215;-88
2022/10/30 12:42:17;;;;;;;7.32;3.60;;;22.80;99.90;;;;;;4859903;29;20184;-86
2022/10/30 12:44:52;;;;;;;8.02;3.38;;;22.90;99.90;;;;;;4855019;29;20259;-87
2022/10/30 12:47:45;;;;;;;5.65;3.45;;;22.90;99.90;;;;;;4860194;29;20234;-87
2022/10/30 12:50:31;;;;;;;9.40;3.97;;;23.00;99.90;;;;;;4841848;29;20201;-87
2022/10/30 12:53:37;;;;;;;6.55;3.45;;;23.00;99.90;;;;;;4843331;29;20223;-88
2022/10/30 12:56:13;;;;;;;8.50;3.47;;;23.10;99.90;;;;;;4851186;29;20189;-87
2022/10/30 12:59:14;;;;;;;6.35;3.42;;;23.20;99.90;;;;;;4857404;29;20232;-88
2022/10/30 13:02:32;;;;;;;7.75;3.17;;;23.30;99.90;;;;;;4855364;29;20222;-88
2022/10/30 13:05:12;;;;;;;7.63;3.72;;;23.30;99.90;;;;;;4822855;29;20230;-86
2022/10/30 13:07:49;;;;;;;6.93;3.20;;;23.40;99.90;;;;;;4844495;29;20185;-88
2022/10/30 13:10:38;;;;;;;10.38;3.65;;;23.40;99.90;;;;;;4858557;29;20264;-88
2022/10/30 13:13:15;;;;;;;8.77;3.28;;;23.50;99.90;;;;;;4857166;29;20295;-87
2022/10/30 13:15:49;;;;;;;7.82;3.40;;;23.60;99.90;;;;;;4855766;29;20173;-86
2022/10/30 13:18:21;;;;;;;8.48;3.90;;;23.70;99.90;;;;;;4844940;29;20174;-87
2022/10/30 13:24:05;;;;;;;7.47;3.40;;;23.80;99.90;;;;;;4860477;29;20352;-87
2022/10/30 13:26:34;;;;;;;8.63;3.67;;;23.90;99.90;;;;;;4859736;29;20180;-87